Greenland, Arkansas
Current Conditions -  °F | °C
As of 7:53 AM on Friday 28 Nov 2014 (Local Time) from KFYV Reporting Station
Clear Clear  
Wind Chill: 30°   Ceiling: Unl
Heat Index: 39°   Visibility: 10mi
Dew Point: 28°   Wind: 17mph
Humidity: 65%   Direction: 210°SSW
Pressure: 30.18"   Gusts: 24mph
Location:  35.99°N, 94.18°W
Report Text: KFYV 281353Z 21015G21KT 10SM CLR 04/M02 A3018 RMK AO2 SLP229 T00391022
Loading
Personal Weather Stations






























Interactive Weather Map New forecast layout! Learn more

10-Day Weather Forecast

Advertisements
Track Severe Weather on mobile